Time;durP1;ratioP1;P1;durP2;ratioP2;P2;SDS_P1;SDS_P2;PMS_P1;PMS_P2;Temp;Humidity;BMP_temperature;BMP_pressure;BME280_temperature;BME280_humidity;BME280_pressure;Samples;Min_cycle;Max_cycle;Signal;HPM_P1;HPM_P2
2022/01/13 00:00:38;;;;;;;53.80;22.07;;;;;;;2.25;100.00;102766.78;4961169;28;20042;-81
2022/01/13 00:03:05;;;;;;;46.20;21.33;;;;;;;2.17;100.00;102768.16;4960565;28;20046;-81
2022/01/13 00:05:32;;;;;;;44.80;19.17;;;;;;;2.19;100.00;102763.94;4951395;28;20073;-82
2022/01/13 00:07:59;;;;;;;53.17;21.50;;;;;;;2.17;100.00;102760.31;4996170;28;20521;-82
2022/01/13 00:10:29;;;;;;;60.37;23.03;;;;;;;2.20;100.00;102757.88;4995429;28;20503;-82
2022/01/13 00:13:02;;;;;;;52.03;21.23;;;;;;;2.33;100.00;102758.44;4960457;28;20050;-81
2022/01/13 00:18:16;;;;;;;49.97;19.93;;;;;;;2.26;100.00;102750.31;4978761;28;20496;-81
2022/01/13 00:26:16;;;;;;;54.97;19.27;;;;;;;2.31;100.00;102744.44;4974393;28;20499;-81
2022/01/13 00:28:45;;;;;;;58.00;22.77;;;;;;;2.29;100.00;102741.78;4961783;28;20061;-82
2022/01/13 00:31:12;;;;;;;54.73;22.23;;;;;;;2.28;100.00;102731.28;4972010;28;20054;-81
2022/01/13 00:33:44;;;;;;;57.50;22.87;;;;;;;2.34;100.00;102727.22;4961071;28;20062;-82
2022/01/13 00:36:12;;;;;;;59.10;23.17;;;;;;;2.38;100.00;102723.94;4961707;28;20046;-82
2022/01/13 00:38:39;;;;;;;56.50;23.60;;;;;;;2.35;100.00;102733.31;4980463;28;20486;-82
2022/01/13 00:41:07;;;;;;;59.47;23.40;;;;;;;2.39;100.00;102728.31;4959313;28;20092;-82
2022/01/13 00:43:39;;;;;;;52.97;20.63;;;;;;;2.40;100.00;102734.44;4971146;28;20052;-81
2022/01/13 00:46:07;;;;;;;52.43;20.23;;;;;;;2.41;100.00;102733.59;4964088;28;20038;-81
2022/01/13 00:48:34;;;;;;;52.27;21.53;;;;;;;2.42;100.00;102743.22;4962157;28;20053;-82
2022/01/13 00:51:01;;;;;;;60.63;23.03;;;;;;;2.43;100.00;102742.38;4959561;28;20061;-82
2022/01/13 00:53:28;;;;;;;54.37;21.40;;;;;;;2.48;100.00;102743.50;4953015;28;20050;-82
2022/01/13 00:55:58;;;;;;;54.97;21.83;;;;;;;2.50;100.00;102734.03;4971484;28;20069;-83
2022/01/13 00:58:27;;;;;;;53.50;21.50;;;;;;;2.46;100.00;102745.16;4973046;28;20081;-82
2022/01/13 01:00:54;;;;;;;53.27;21.83;;;;;;;2.53;100.00;102734.19;4976133;28;20058;-82
2022/01/13 01:03:21;;;;;;;60.80;22.37;;;;;;;2.53;100.00;102744.63;4991328;28;20042;-82
2022/01/13 01:05:48;;;;;;;65.93;24.10;;;;;;;2.59;100.00;102741.38;4955516;28;20046;-81
2022/01/13 01:08:15;;;;;;;62.87;23.77;;;;;;;2.62;100.00;102728.50;4967881;28;20042;-82
2022/01/13 01:10:48;;;;;;;60.07;21.27;;;;;;;2.58;100.00;102734.38;4976107;28;20074;-82
2022/01/13 01:13:20;;;;;;;54.23;22.00;;;;;;;2.65;100.00;102726.91;4959579;28;20595;-82
2022/01/13 01:15:54;;;;;;;57.60;24.47;;;;;;;2.63;100.00;102728.56;4973036;28;20483;-82
2022/01/13 01:23:37;;;;;;;52.00;20.50;;;;;;;2.69;100.00;102727.91;4961543;28;20039;-82
2022/01/13 01:26:25;;;;;;;63.00;23.47;;;;;;;2.63;100.00;102725.94;4966562;28;20491;-83
2022/01/13 01:29:21;;;;;;;54.13;21.73;;;;;;;2.59;100.00;102741.38;4963425;28;20104;-82
2022/01/13 01:31:46;;;;;;;51.73;20.37;;;;;;;2.66;100.00;102741.72;4977093;28;20138;-82
2022/01/13 01:36:54;;;;;;;56.77;21.57;;;;;;;2.61;100.00;102740.66;4966466;28;20061;-83
2022/01/13 01:39:22;;;;;;;54.40;21.53;;;;;;;2.69;100.00;102739.28;4945276;28;20129;-82
2022/01/13 01:41:51;;;;;;;56.73;21.93;;;;;;;2.67;100.00;102727.84;4970715;28;20053;-82
2022/01/13 01:44:41;;;;;;;62.30;22.60;;;;;;;2.73;100.00;102725.53;4994816;28;20499;-83
2022/01/13 01:47:16;;;;;;;54.53;24.30;;;;;;;2.74;100.00;102723.81;4956129;28;20100;-82
2022/01/13 01:49:49;;;;;;;55.87;22.60;;;;;;;2.81;100.00;102723.25;4957367;28;20492;-82
2022/01/13 01:52:17;;;;;;;56.47;22.63;;;;;;;2.87;100.00;102720.94;4954388;23;20043;-83
2022/01/13 01:54:45;;;;;;;58.00;22.77;;;;;;;2.90;100.00;102713.22;4955055;28;20067;-83
2022/01/13 01:57:13;;;;;;;57.83;22.83;;;;;;;2.86;100.00;102718.22;4933623;28;20050;-84
2022/01/13 01:59:42;;;;;;;55.37;21.93;;;;;;;2.82;100.00;102717.19;4947420;28;20043;-84
2022/01/13 02:02:12;;;;;;;57.30;21.43;;;;;;;2.79;100.00;102711.88;4945254;28;20097;-85
2022/01/13 02:04:39;;;;;;;49.50;21.53;;;;;;;2.85;100.00;102692.94;4976231;28;20054;-84
2022/01/13 02:07:07;;;;;;;51.20;23.13;;;;;;;2.83;100.00;102691.16;4940212;29;20053;-83
2022/01/13 02:09:36;;;;;;;47.73;20.10;;;;;;;2.83;100.00;102691.16;4942652;29;20047;-83
2022/01/13 02:12:08;;;;;;;49.47;20.93;;;;;;;2.78;100.00;102681.38;4943268;28;20049;-84
2022/01/13 02:14:47;;;;;;;51.70;21.77;;;;;;;2.78;100.00;102686.59;4928488;28;20134;-83
2022/01/13 02:17:22;;;;;;;54.40;21.87;;;;;;;2.86;100.00;102673.84;4943716;28;20074;-84
2022/01/13 02:19:52;;;;;;;53.00;21.90;;;;;;;2.92;100.00;102677.63;4943510;28;20047;-85
2022/01/13 02:22:18;;;;;;;59.40;21.43;;;;;;;2.87;100.00;102673.94;4958422;28;20122;-84
2022/01/13 02:24:45;;;;;;;55.33;19.83;;;;;;;2.97;100.00;102683.06;4952178;28;20047;-82
2022/01/13 02:27:12;;;;;;;58.07;22.00;;;;;;;2.89;100.00;102674.00;4922986;29;20039;-84
2022/01/13 02:29:39;;;;;;;46.80;19.23;;;;;;;2.91;100.00;102665.38;4926644;28;20043;-81
2022/01/13 02:32:07;;;;;;;53.00;21.10;;;;;;;2.98;100.00;102650.88;4941693;28;20054;-82
2022/01/13 02:34:33;;;;;;;50.63;19.37;;;;;;;2.90;100.00;102649.66;4958727;28;20039;-81
2022/01/13 02:37:02;;;;;;;48.50;20.73;;;;;;;2.94;100.00;102643.72;4925417;28;20109;-85
2022/01/13 02:39:29;;;;;;;50.83;19.43;;;;;;;2.96;100.00;102631.66;4941886;28;20050;-82
2022/01/13 02:41:58;;;;;;;48.93;19.60;;;;;;;2.94;100.00;102631.56;4951248;28;20050;-81
2022/01/13 02:44:25;;;;;;;49.20;18.43;;;;;;;2.93;100.00;102631.50;4925283;28;20043;-83
2022/01/13 02:47:07;;;;;;;47.47;19.90;;;;;;;3.11;100.00;102629.66;4955707;28;20043;-84
2022/01/13 02:49:34;;;;;;;49.63;20.20;;;;;;;3.04;100.00;102638.97;4942355;28;20042;-84
2022/01/13 02:52:02;;;;;;;50.70;21.73;;;;;;;3.03;100.00;102632.00;4939605;28;20054;-85
2022/01/13 02:54:30;;;;;;;51.70;19.77;;;;;;;3.01;100.00;102640.56;4932773;28;20039;-84
2022/01/13 02:56:56;;;;;;;46.47;17.03;;;;;;;3.04;100.00;102635.50;4923853;28;20043;-82
2022/01/13 02:59:23;;;;;;;42.30;17.57;;;;;;;3.10;100.00;102634.00;4940290;28;20054;-83
2022/01/13 03:01:50;;;;;;;42.80;17.97;;;;;;;3.10;100.00;102636.59;4931684;28;20086;-84
2022/01/13 03:04:17;;;;;;;50.37;18.80;;;;;;;3.12;100.00;102626.25;4936308;29;20054;-85
2022/01/13 03:06:44;;;;;;;45.63;19.43;;;;;;;3.06;100.00;102632.09;4936281;29;20098;-82
2022/01/13 03:09:13;;;;;;;36.70;16.27;;;;;;;3.12;100.00;102615.81;4935533;29;20075;-84
2022/01/13 03:11:41;;;;;;;48.77;19.67;;;;;;;3.14;100.00;102611.53;4903402;29;20520;-86
2022/01/13 03:14:10;;;;;;;44.60;15.87;;;;;;;3.13;100.00;102611.47;4938651;28;20039;-88
2022/01/13 03:16:38;;;;;;;44.40;16.87;;;;;;;3.17;100.00;102611.63;4925774;29;20493;-85
2022/01/13 03:19:05;;;;;;;36.53;16.90;;;;;;;3.18;100.00;102612.53;4951693;28;20050;-85
2022/01/13 03:21:32;;;;;;;45.67;19.23;;;;;;;3.17;100.00;102613.38;4941484;28;20134;-85
2022/01/13 03:23:59;;;;;;;39.57;17.10;;;;;;;3.16;100.00;102602.03;4922527;29;20637;-86
2022/01/13 03:26:26;;;;;;;42.77;16.00;;;;;;;3.14;100.00;102605.41;4936062;28;20835;-85
2022/01/13 03:29:14;;;;;;;47.33;18.77;;;;;;;3.17;100.00;102608.13;4921654;29;20046;-86
2022/01/13 03:31:43;;;;;;;43.70;17.70;;;;;;;3.18;100.00;102610.81;4935308;28;20047;-85
2022/01/13 03:34:10;;;;;;;39.73;16.63;;;;;;;3.17;100.00;102609.03;4909103;29;20059;-84
2022/01/13 03:36:37;;;;;;;44.30;16.33;;;;;;;3.19;100.00;102611.69;4902243;29;20051;-85
2022/01/13 03:39:06;;;;;;;38.10;16.07;;;;;;;3.13;100.00;102606.25;4920906;28;20055;-86
2022/01/13 03:41:34;;;;;;;43.93;15.67;;;;;;;3.13;100.00;102593.19;4929343;29;20047;-83
2022/01/13 03:44:06;;;;;;;38.87;16.23;;;;;;;3.20;100.00;102597.84;4933449;29;20052;-85
2022/01/13 03:46:37;;;;;;;42.73;17.13;;;;;;;3.24;100.00;102584.94;4932540;29;20043;-85
2022/01/13 03:49:07;;;;;;;37.10;16.30;;;;;;;3.22;100.00;102594.44;4920565;28;20049;-84
2022/01/13 03:51:52;;;;;;;39.50;16.07;;;;;;;3.26;100.00;102590.22;4921245;29;20047;-84
2022/01/13 03:54:31;;;;;;;39.20;14.20;;;;;;;3.18;100.00;102578.56;4939057;28;20043;-87
2022/01/13 03:57:38;;;;;;;43.27;17.50;;;;;;;3.19;100.00;102583.84;4936040;29;20070;-83
2022/01/13 04:00:52;;;;;;;38.87;16.07;;;;;;;3.20;100.00;102580.44;4924459;28;20381;-87
2022/01/13 04:03:19;;;;;;;39.37;15.27;;;;;;;3.22;100.00;102583.13;4937982;28;20046;-82
2022/01/13 04:06:08;;;;;;;36.83;15.07;;;;;;;3.21;100.00;102581.34;4938570;29;20070;-84
2022/01/13 04:08:35;;;;;;;42.40;16.97;;;;;;;3.23;100.00;102580.56;4937770;29;20051;-85
2022/01/13 04:11:04;;;;;;;40.90;16.87;;;;;;;3.22;100.00;102570.06;4916877;29;20052;-82
2022/01/13 04:16:20;;;;;;;44.73;16.07;;;;;;;3.16;100.00;102583.75;4921838;29;20122;-82
2022/01/13 04:18:48;;;;;;;38.27;15.47;;;;;;;3.20;100.00;102572.63;4936103;29;20749;-85
2022/01/13 04:21:18;;;;;;;37.90;15.80;;;;;;;3.19;100.00;102582.97;4936859;28;20054;-85
2022/01/13 04:23:45;;;;;;;41.97;16.07;;;;;;;3.22;100.00;102567.44;4936463;29;20121;-87
2022/01/13 04:26:15;;;;;;;37.97;15.57;;;;;;;3.18;100.00;102565.53;4921260;28;20556;-84
2022/01/13 04:28:42;;;;;;;40.30;16.00;;;;;;;3.17;100.00;102564.63;4939867;28;20047;-85
2022/01/13 04:31:08;;;;;;;36.80;16.20;;;;;;;3.28;100.00;102565.97;4933175;28;20047;-83
2022/01/13 04:33:37;;;;;;;45.50;18.63;;;;;;;3.23;100.00;102556.16;4962427;28;20106;-86
2022/01/13 04:36:06;;;;;;;40.60;16.43;;;;;;;3.24;100.00;102571.88;4932860;29;22042;-85
2022/01/13 04:38:33;;;;;;;38.70;16.53;;;;;;;3.27;100.00;102573.72;4920388;29;20093;-86
2022/01/13 04:41:01;;;;;;;35.37;15.97;;;;;;;3.29;100.00;102582.53;4928807;29;20051;-85
2022/01/13 04:43:30;;;;;;;45.10;18.23;;;;;;;3.28;100.00;102586.88;4918454;29;20043;-84
2022/01/13 04:45:57;;;;;;;35.67;17.00;;;;;;;3.25;100.00;102572.78;4923863;29;20413;-84
2022/01/13 04:48:24;;;;;;;41.90;16.63;;;;;;;3.30;100.00;102569.53;4941679;28;20133;-86
2022/01/13 04:50:51;;;;;;;39.83;15.07;;;;;;;3.31;100.00;102557.34;4937995;29;20102;-85
2022/01/13 04:53:18;;;;;;;42.80;17.47;;;;;;;3.35;100.00;102554.03;4943454;28;20491;-85
2022/01/13 04:55:51;;;;;;;44.97;18.73;;;;;;;3.33;100.00;102561.81;4947577;28;20044;-83
2022/01/13 04:58:18;;;;;;;37.07;15.40;;;;;;;3.29;100.00;102562.53;4941644;28;20133;-85
2022/01/13 05:00:45;;;;;;;38.93;16.43;;;;;;;3.31;100.00;102567.81;4961211;28;20055;-87
2022/01/13 05:03:12;;;;;;;33.83;14.90;;;;;;;3.27;100.00;102550.22;4947245;28;20039;-85
2022/01/13 05:05:39;;;;;;;35.43;15.00;;;;;;;3.34;100.00;102549.63;4963482;28;20057;-86
2022/01/13 05:08:06;;;;;;;44.13;16.73;;;;;;;3.27;100.00;102558.94;4970665;28;20046;-86
2022/01/13 05:10:32;;;;;;;40.87;15.17;;;;;;;3.29;100.00;102548.56;4968547;28;20046;-86
2022/01/13 05:12:59;;;;;;;39.90;14.80;;;;;;;3.29;100.00;102554.69;4934320;28;20038;-85
2022/01/13 05:15:27;;;;;;;38.37;15.47;;;;;;;3.33;100.00;102558.31;4943892;28;20051;-86
2022/01/13 05:20:27;;;;;;;34.60;15.67;;;;;;;3.34;100.00;102558.34;4972816;28;20420;-85
2022/01/13 05:22:54;;;;;;;40.77;16.63;;;;;;;3.31;100.00;102557.34;4976528;28;20057;-83
2022/01/13 05:25:21;;;;;;;38.17;16.20;;;;;;;3.29;100.00;102549.47;4928627;28;20047;-87
2022/01/13 05:27:48;;;;;;;37.70;15.20;;;;;;;3.27;100.00;102563.28;4926555;28;20078;-85
2022/01/13 05:30:17;;;;;;;39.37;16.17;;;;;;;3.32;100.00;102560.03;4943296;28;20500;-84
2022/01/13 05:32:45;;;;;;;32.60;14.53;;;;;;;3.33;100.00;102555.69;4961007;28;20050;-84
2022/01/13 05:35:15;;;;;;;36.10;16.70;;;;;;;3.39;100.00;102559.44;4977563;28;20054;-85
2022/01/13 05:37:43;;;;;;;38.17;15.27;;;;;;;3.34;100.00;102555.75;4976943;28;20062;-85
2022/01/13 05:40:11;;;;;;;35.47;16.13;;;;;;;3.44;100.00;102549.16;4961489;28;20046;-85
2022/01/13 05:42:39;;;;;;;35.40;16.27;;;;;;;3.40;100.00;102565.56;4945624;28;20054;-85
2022/01/13 05:45:14;;;;;;;39.90;15.77;;;;;;;3.34;100.00;102560.97;4946467;28;20046;-83
2022/01/13 05:47:42;;;;;;;37.67;16.80;;;;;;;3.34;100.00;102563.56;4936289;28;20043;-83
2022/01/13 05:50:10;;;;;;;40.17;16.93;;;;;;;3.37;100.00;102576.78;4926247;28;20050;-83
2022/01/13 05:52:37;;;;;;;37.20;15.30;;;;;;;3.27;100.00;102585.06;4934834;28;20067;-84
2022/01/13 05:55:05;;;;;;;37.07;15.93;;;;;;;3.28;100.00;102588.56;4957961;28;20043;-86
2022/01/13 05:57:31;;;;;;;42.33;17.43;;;;;;;3.28;100.00;102585.94;4959844;28;20042;-84
2022/01/13 05:59:58;;;;;;;41.20;18.00;;;;;;;3.35;100.00;102595.81;4941116;28;20043;-84
2022/01/13 06:02:25;;;;;;;37.47;17.27;;;;;;;3.37;100.00;102587.22;4956330;28;20401;-84
2022/01/13 06:04:52;;;;;;;33.17;15.07;;;;;;;3.33;100.00;102590.53;4942020;28;20047;-85
2022/01/13 06:07:18;;;;;;;45.30;15.60;;;;;;;3.42;100.00;102600.47;4940306;28;20050;-84
2022/01/13 06:09:45;;;;;;;36.30;15.20;;;;;;;3.33;100.00;102590.53;4927048;28;20081;-85
2022/01/13 06:12:13;;;;;;;34.20;16.50;;;;;;;3.31;100.00;102588.69;4924136;28;20051;-83
2022/01/13 06:14:40;;;;;;;43.43;16.70;;;;;;;3.29;100.00;102587.75;4941789;28;20416;-84
2022/01/13 06:17:06;;;;;;;39.67;17.33;;;;;;;3.27;100.00;102576.34;4924534;28;20039;-85
2022/01/13 06:19:33;;;;;;;40.00;16.10;;;;;;;3.33;100.00;102580.09;4925074;28;20047;-85
2022/01/13 06:22:00;;;;;;;40.50;16.90;;;;;;;3.37;100.00;102574.16;4949780;28;20053;-84
2022/01/13 06:24:26;;;;;;;36.13;16.80;;;;;;;3.38;100.00;102578.56;4950889;28;20054;-84
2022/01/13 06:26:53;;;;;;;32.10;15.40;;;;;;;3.37;100.00;102584.63;4955580;28;20038;-84
2022/01/13 06:29:20;;;;;;;31.57;15.67;;;;;;;3.33;100.00;102571.38;4940856;28;20044;-84
2022/01/13 06:31:46;;;;;;;41.03;17.67;;;;;;;3.33;100.00;102581.81;4923468;28;20043;-84
2022/01/13 06:34:13;;;;;;;31.60;14.53;;;;;;;3.46;100.00;102580.59;4939546;28;20141;-84
2022/01/13 06:36:41;;;;;;;42.43;16.17;;;;;;;3.41;100.00;102582.13;4958352;28;20046;-84
2022/01/13 06:39:08;;;;;;;36.33;15.83;;;;;;;3.39;100.00;102572.50;4975826;28;20050;-84
2022/01/13 06:41:39;;;;;;;36.37;15.90;;;;;;;3.35;100.00;102577.53;4987070;28;20044;-84
2022/01/13 06:44:06;;;;;;;35.90;15.60;;;;;;;3.33;100.00;102587.91;4963742;28;20050;-85
2022/01/13 06:46:33;;;;;;;33.20;16.70;;;;;;;3.38;100.00;102589.00;4993937;28;20128;-85
2022/01/13 06:49:00;;;;;;;39.67;16.60;;;;;;;3.40;100.00;102586.44;4961564;28;20435;-85
2022/01/13 06:51:32;;;;;;;35.43;15.40;;;;;;;3.40;100.00;102581.22;4939676;28;20043;-84
2022/01/13 06:53:58;;;;;;;40.63;17.47;;;;;;;3.37;100.00;102592.47;4940538;28;20515;-84
2022/01/13 06:56:26;;;;;;;36.37;16.47;;;;;;;3.35;100.00;102594.09;4955301;28;20644;-86
2022/01/13 06:58:54;;;;;;;40.53;17.37;;;;;;;3.34;100.00;102594.03;4940335;28;20042;-84
2022/01/13 07:01:22;;;;;;;40.73;16.80;;;;;;;3.37;100.00;102587.22;4940475;28;20054;-85
2022/01/13 07:03:49;;;;;;;40.63;16.47;;;;;;;3.43;100.00;102588.28;4944095;28;20042;-85
2022/01/13 07:06:16;;;;;;;47.20;18.93;;;;;;;3.42;100.00;102594.34;4943580;28;20062;-85
2022/01/13 07:08:43;;;;;;;43.47;17.30;;;;;;;3.39;100.00;102598.63;4960704;28;20133;-85
2022/01/13 07:11:10;;;;;;;39.17;19.57;;;;;;;3.35;100.00;102599.31;4958810;28;20733;-85
2022/01/13 07:13:36;;;;;;;40.03;18.60;;;;;;;3.36;100.00;102606.34;4960185;28;20049;-85
2022/01/13 07:16:03;;;;;;;38.57;17.17;;;;;;;3.36;100.00;102601.13;4941107;28;20046;-85
2022/01/13 07:18:31;;;;;;;40.37;18.63;;;;;;;3.38;100.00;102604.69;4925479;28;20054;-85
2022/01/13 07:20:58;;;;;;;42.50;17.07;;;;;;;3.42;100.00;102595.25;4933105;28;20046;-85
2022/01/13 07:23:24;;;;;;;38.60;17.43;;;;;;;3.39;100.00;102569.88;4948244;28;20050;-85
2022/01/13 07:25:51;;;;;;;45.70;18.67;;;;;;;3.41;100.00;102603.03;4942756;28;20542;-84
2022/01/13 07:28:18;;;;;;;42.87;17.37;;;;;;;3.35;100.00;102622.84;4951864;28;20078;-85
2022/01/13 07:30:44;;;;;;;39.90;18.47;;;;;;;3.41;100.00;102609.13;4926684;28;20070;-86
2022/01/13 07:33:11;;;;;;;39.53;17.17;;;;;;;3.42;100.00;102605.69;4954492;28;20046;-84
2022/01/13 07:35:38;;;;;;;41.17;17.87;;;;;;;3.44;100.00;102605.75;4942577;28;20062;-84
2022/01/13 07:38:05;;;;;;;41.07;18.17;;;;;;;3.47;100.00;102608.50;4941607;28;20053;-84
2022/01/13 07:40:31;;;;;;;37.50;16.40;;;;;;;3.50;100.00;102611.22;4941838;28;20050;-84
2022/01/13 07:42:58;;;;;;;39.67;16.80;;;;;;;3.46;100.00;102611.94;4972057;28;20050;-85
2022/01/13 07:45:25;;;;;;;38.53;16.30;;;;;;;3.45;100.00;102618.91;4956793;28;20058;-85
2022/01/13 07:47:52;;;;;;;46.63;17.23;;;;;;;3.43;100.00;102617.03;4939268;28;20489;-85
2022/01/13 07:50:18;;;;;;;38.87;17.07;;;;;;;3.52;100.00;102622.63;4950680;28;20419;-85
2022/01/13 07:52:45;;;;;;;36.07;15.70;;;;;;;3.49;100.00;102612.94;4942138;28;20046;-85
2022/01/13 07:55:12;;;;;;;34.97;15.37;;;;;;;3.50;100.00;102616.44;4943800;28;20058;-85
2022/01/13 07:57:39;;;;;;;37.57;14.47;;;;;;;3.45;100.00;102623.19;4973992;28;20034;-85
2022/01/13 08:00:08;;;;;;;38.13;16.43;;;;;;;3.49;100.00;102619.91;4958774;28;20057;-85
2022/01/13 08:02:35;;;;;;;36.53;16.87;;;;;;;3.56;100.00;102614.09;4959524;28;20122;-86
2022/01/13 08:05:03;;;;;;;38.47;17.23;;;;;;;3.58;100.00;102604.56;4962027;28;20081;-86
2022/01/13 08:07:30;;;;;;;38.40;15.50;;;;;;;3.54;100.00;102610.53;4976645;28;20042;-85
2022/01/13 08:09:57;;;;;;;34.50;16.37;;;;;;;3.58;100.00;102604.56;4977876;28;20499;-85
2022/01/13 08:12:24;;;;;;;34.57;15.70;;;;;;;3.56;100.00;102616.69;4961196;28;20048;-85
2022/01/13 08:14:51;;;;;;;33.17;16.60;;;;;;;3.76;100.00;102607.91;4968036;28;20050;-84
2022/01/13 08:20:30;;;;;;;40.57;17.73;;;;;;;3.58;100.00;102601.97;4961332;28;20046;-81
2022/01/13 08:22:58;;;;;;;35.30;16.40;;;;;;;3.61;100.00;102607.28;4956907;28;20451;-81
2022/01/13 08:25:25;;;;;;;31.50;14.93;;;;;;;3.64;100.00;102596.97;4941750;28;20042;-81
2022/01/13 08:27:53;;;;;;;36.80;15.83;;;;;;;3.66;100.00;102596.19;4937134;29;20054;-81
2022/01/13 08:30:20;;;;;;;33.67;15.53;;;;;;;3.66;100.00;102598.81;4941296;28;20079;-82
2022/01/13 08:32:47;;;;;;;35.03;15.70;;;;;;;3.68;100.00;102598.88;4937177;29;20058;-81
2022/01/13 08:35:14;;;;;;;38.23;16.57;;;;;;;3.64;100.00;102592.66;4956266;28;20047;-81
2022/01/13 08:37:41;;;;;;;36.73;16.80;;;;;;;3.70;100.00;102586.78;4937287;29;20043;-81
2022/01/13 08:40:10;;;;;;;38.83;17.47;;;;;;;3.74;100.00;102590.38;4923943;28;20456;-81
2022/01/13 08:42:37;;;;;;;38.90;16.53;;;;;;;3.79;100.00;102592.34;4921357;29;20047;-81
2022/01/13 08:45:10;;;;;;;35.60;15.60;;;;;;;3.76;100.00;102596.56;4939119;28;20420;-82
2022/01/13 08:47:39;;;;;;;34.27;15.97;;;;;;;3.82;100.00;102596.78;4919255;29;20053;-81
2022/01/13 08:50:07;;;;;;;43.57;17.47;;;;;;;3.80;100.00;102594.13;4935679;29;20039;-81
2022/01/13 08:52:38;;;;;;;40.53;16.83;;;;;;;3.77;100.00;102595.72;4933775;29;20508;-82
2022/01/13 08:55:08;;;;;;;38.90;17.97;;;;;;;3.79;100.00;102586.22;4910864;29;20058;-81
2022/01/13 08:57:35;;;;;;;38.47;15.90;;;;;;;3.79;100.00;102587.13;4886299;29;20497;-81
2022/01/13 09:00:04;;;;;;;35.80;16.47;;;;;;;3.88;100.00;102584.84;4900636;29;20044;-81
2022/01/13 09:02:33;;;;;;;36.70;14.90;;;;;;;3.96;100.00;102585.13;4895846;29;20409;-81
2022/01/13 09:05:01;;;;;;;35.53;14.77;;;;;;;3.99;100.00;102584.34;4920077;29;20394;-81
2022/01/13 09:07:28;;;;;;;38.07;15.17;;;;;;;3.94;100.00;102592.00;4902037;29;20036;-81
2022/01/13 09:10:04;;;;;;;34.23;15.53;;;;;;;4.09;100.00;102589.97;4935942;29;20051;-81
2022/01/13 09:12:31;;;;;;;32.13;14.30;;;;;;;4.04;100.00;102582.81;4905043;29;20051;-81
2022/01/13 09:15:03;;;;;;;36.60;15.10;;;;;;;4.11;100.00;102584.78;4938109;29;20496;-82
2022/01/13 09:17:33;;;;;;;33.90;15.57;;;;;;;4.10;100.00;102578.66;4911068;29;20406;-82
2022/01/13 09:19:59;;;;;;;35.17;15.70;;;;;;;4.10;100.00;102581.28;4915942;29;20048;-83
2022/01/13 09:22:26;;;;;;;35.90;15.10;;;;;;;4.15;100.00;102584.09;4898721;29;20116;-81
2022/01/13 09:24:53;;;;;;;32.43;15.10;;;;;;;4.17;100.00;102585.03;4900264;29;20067;-81
2022/01/13 09:27:19;;;;;;;36.83;14.93;;;;;;;4.20;100.00;102588.66;4885123;29;20387;-80
2022/01/13 09:29:46;;;;;;;29.07;14.23;;;;;;;4.17;100.00;102579.78;4915152;29;20052;-81
2022/01/13 09:32:14;;;;;;;30.50;14.33;;;;;;;4.20;100.00;102578.19;4900063;29;20060;-81
2022/01/13 09:34:42;;;;;;;35.23;14.70;;;;;;;4.19;100.00;102576.38;4915152;29;20044;-81
2022/01/13 09:37:08;;;;;;;33.43;14.90;;;;;;;4.32;100.00;102580.34;4899011;29;20064;-81
2022/01/13 09:39:35;;;;;;;34.23;14.47;;;;;;;4.28;100.00;102573.22;4899602;29;20047;-81
2022/01/13 09:42:02;;;;;;;30.90;13.97;;;;;;;4.38;100.00;102582.31;4913103;29;20123;-81
2022/01/13 09:44:29;;;;;;;34.90;15.30;;;;;;;4.40;100.00;102578.91;4902152;29;20497;-81
2022/01/13 09:46:56;;;;;;;30.50;15.33;;;;;;;4.45;100.00;102574.69;4898039;29;20059;-81
2022/01/13 09:49:23;;;;;;;36.33;15.70;;;;;;;4.45;100.00;102585.16;4930452;29;20457;-81
2022/01/13 09:51:49;;;;;;;32.57;14.93;;;;;;;4.48;100.00;102569.59;4913508;29;20122;-81
2022/01/13 09:54:16;;;;;;;27.70;12.53;;;;;;;4.49;100.00;102571.38;4935009;29;20044;-81
2022/01/13 09:56:44;;;;;;;29.67;13.77;;;;;;;4.51;100.00;102563.56;4932496;29;20048;-81
2022/01/13 09:59:11;;;;;;;33.10;14.93;;;;;;;4.47;100.00;102567.81;4903659;29;20040;-81
2022/01/13 10:01:38;;;;;;;28.73;13.43;;;;;;;4.60;100.00;102570.84;4917476;29;20051;-81
2022/01/13 10:04:04;;;;;;;32.43;15.57;;;;;;;4.57;100.00;102565.50;4903750;29;20048;-81
2022/01/13 10:06:41;;;;;;;33.13;13.57;;;;;;;4.61;100.00;102562.16;4917455;29;20039;-81
2022/01/13 10:09:07;;;;;;;30.90;13.60;;;;;;;4.63;100.00;102564.00;4918603;29;20095;-81
2022/01/13 10:11:44;;;;;;;28.63;13.17;;;;;;;4.67;100.00;102560.63;4917933;29;20452;-82
2022/01/13 10:17:03;;;;;;;30.80;13.10;;;;;;;4.65;100.00;102561.44;4948282;29;20098;-80
2022/01/13 10:19:36;;;;;;;27.97;14.00;;;;;;;4.69;100.00;102560.69;4930167;29;20055;-81
2022/01/13 10:22:07;;;;;;;27.65;12.50;;;;;;;4.80;100.00;102556.72;4920187;29;20142;-80
2022/01/13 10:24:36;;;;;;;27.63;13.53;;;;;;;4.78;100.00;102555.75;4906780;29;20504;-81
2022/01/13 10:27:21;;;;;;;27.17;12.57;;;;;;;4.86;100.00;102546.41;4920788;28;20062;-80
2022/01/13 10:29:49;;;;;;;;;;;;;;;4.84;100.00;102536.75;4931552;29;20106;-81
2022/01/13 10:32:22;;;;;;;30.10;14.70;;;;;;;4.83;100.00;102546.34;4923799;28;19926;-80
2022/01/13 10:34:55;;;;;;;29.17;13.67;;;;;;;4.82;100.00;102544.56;4918536;29;20149;-81
2022/01/13 10:37:30;;;;;;;25.30;12.07;;;;;;;4.88;100.00;102541.25;4925589;29;20138;-81
2022/01/13 10:40:16;;;;;;;30.93;13.63;;;;;;;4.96;100.00;102534.50;4923259;29;20051;-81
2022/01/13 10:45:26;;;;;;;24.23;12.80;;;;;;;4.97;100.00;102541.56;4919529;29;20080;-80
2022/01/13 10:48:06;;;;;;;23.58;12.50;;;;;;;4.99;100.00;102539.88;4914686;29;20125;-80
2022/01/13 10:50:34;;;;;;;25.37;12.67;;;;;;;5.04;100.00;102549.66;4927381;29;20062;-85
2022/01/13 10:53:07;;;;;;;25.60;13.80;;;;;;;5.01;100.00;102549.53;4918398;29;20124;-85
2022/01/13 10:55:38;;;;;;;30.53;15.00;;;;;;;5.04;100.00;102547.03;4906671;29;20043;-84
2022/01/13 10:58:13;;;;;;;25.77;13.73;;;;;;;5.04;100.00;102539.19;4920366;29;20052;-84
2022/01/13 11:00:39;;;;;;;26.03;13.27;;;;;;;5.03;100.00;102537.38;4911304;29;20099;-85
2022/01/13 11:03:15;;;;;;;33.97;13.23;;;;;;;5.06;100.00;102528.75;4901745;29;20067;-84
2022/01/13 11:05:50;;;;;;;27.70;12.87;;;;;;;5.09;100.00;102534.97;4904509;29;20336;-84
2022/01/13 11:08:41;;;;;;;25.53;12.40;;;;;;;5.11;100.00;102531.50;4918831;29;20151;-84
2022/01/13 11:11:26;;;;;;;24.83;11.77;;;;;;;5.11;100.00;102524.53;4905059;29;20071;-84
2022/01/13 11:14:24;;;;;;;24.70;12.03;;;;;;;5.12;100.00;102531.53;4904471;29;20745;-83
2022/01/13 11:16:50;;;;;;;28.30;14.63;;;;;;;5.15;100.00;102531.66;4933778;29;20048;-82
2022/01/13 11:19:19;;;;;;;26.97;12.43;;;;;;;5.13;100.00;102527.19;4918871;29;20509;-83
2022/01/13 11:21:48;;;;;;;28.40;12.90;;;;;;;5.13;100.00;102522.88;4906731;29;20058;-84
2022/01/13 11:24:17;;;;;;;27.73;12.13;;;;;;;5.14;100.00;102531.63;4920733;29;20073;-80
2022/01/13 11:26:44;;;;;;;26.40;11.97;;;;;;;5.24;100.00;102525.81;4934035;29;20044;-81
2022/01/13 11:29:11;;;;;;;27.33;13.30;;;;;;;5.23;100.00;102526.66;4932928;29;20135;-80
2022/01/13 11:31:39;;;;;;;25.83;12.53;;;;;;;5.29;100.00;102529.47;4890850;29;20064;-81
2022/01/13 11:34:05;;;;;;;26.30;13.63;;;;;;;5.34;100.00;102525.25;4949290;29;20519;-81
2022/01/13 11:36:32;;;;;;;25.63;12.77;;;;;;;5.37;100.00;102514.84;4902936;29;20117;-81
2022/01/13 11:39:01;;;;;;;29.23;11.60;;;;;;;5.39;100.00;102513.19;4920928;29;20082;-82
2022/01/13 11:41:28;;;;;;;24.03;11.67;;;;;;;5.31;100.00;102512.97;4917136;29;20956;-81
2022/01/13 11:44:11;;;;;;;25.67;12.03;;;;;;;5.36;100.00;102513.06;4947419;28;20055;-81
2022/01/13 11:46:45;;;;;;;23.80;12.27;;;;;;;5.32;100.00;102506.88;4897808;29;20044;-81
2022/01/13 11:49:18;;;;;;;26.48;11.70;;;;;;;5.33;100.00;102503.41;4924915;29;20056;-81